createdAt,value
2022-12-20T00:00:30.090Z,20.70
2022-12-20T00:03:17.645Z,21.90
2022-12-20T00:06:04.542Z,17.40
2022-12-20T00:08:55.321Z,17.10
2022-12-20T00:11:43.459Z,18.50
2022-12-20T00:14:29.986Z,18.30
2022-12-20T00:17:16.878Z,20.80
2022-12-20T00:20:03.615Z,16.40
2022-12-20T00:22:50.376Z,19.10
2022-12-20T00:25:37.258Z,18.80
2022-12-20T00:28:24.328Z,18.90
2022-12-20T00:31:13.854Z,18.90
2022-12-20T00:34:01.411Z,20.60
2022-12-20T00:36:49.446Z,16.20
2022-12-20T00:39:36.421Z,14.40
2022-12-20T00:42:23.386Z,16.20
2022-12-20T00:45:10.454Z,18.80
2022-12-20T00:47:57.207Z,18.20
2022-12-20T00:50:44.168Z,15.90
2022-12-20T00:53:31.387Z,20.20
2022-12-20T00:56:18.522Z,18.60
2022-12-20T00:59:05.486Z,18.20
2022-12-20T01:01:52.585Z,15.60
2022-12-20T01:04:40.174Z,18.70
2022-12-20T01:07:26.712Z,13.00
2022-12-20T01:10:13.902Z,15.70
2022-12-20T01:13:01.086Z,15.40
2022-12-20T01:15:48.249Z,15.20
2022-12-20T01:18:35.149Z,12.60
2022-12-20T01:21:23.597Z,14.00
2022-12-20T01:24:20.120Z,16.70
2022-12-20T01:27:07.201Z,13.90
2022-12-20T01:29:53.644Z,13.20
2022-12-20T01:32:40.535Z,11.90
2022-12-20T01:35:27.041Z,13.40
2022-12-20T01:38:13.988Z,14.70
2022-12-20T01:41:00.581Z,12.20
2022-12-20T01:43:48.959Z,14.10
2022-12-20T01:46:36.504Z,21.60
2022-12-20T01:49:23.401Z,14.90
2022-12-20T01:52:13.668Z,16.50
2022-12-20T01:55:22.821Z,15.40
2022-12-20T01:58:12.015Z,11.90
2022-12-20T02:04:50.682Z,14.50
2022-12-20T02:07:38.120Z,15.70
2022-12-20T02:10:29.566Z,13.80
2022-12-20T02:13:24.096Z,16.20
2022-12-20T02:16:14.165Z,15.80
2022-12-20T02:19:00.924Z,14.90
2022-12-20T02:21:53.084Z,13.90
2022-12-20T02:24:47.725Z,15.60
2022-12-20T02:27:40.286Z,15.90
2022-12-20T02:30:28.718Z,16.10
2022-12-20T02:33:15.902Z,16.10
2022-12-20T02:36:03.608Z,14.20
2022-12-20T02:38:51.400Z,16.60
2022-12-20T02:41:41.156Z,13.00
2022-12-20T02:44:47.954Z,14.90
2022-12-20T02:47:36.751Z,15.50
2022-12-20T02:50:28.578Z,13.90
2022-12-20T02:53:16.281Z,12.80
2022-12-20T02:56:16.988Z,15.40
2022-12-20T02:59:04.162Z,15.10
2022-12-20T03:01:53.059Z,11.90
2022-12-20T03:04:41.057Z,13.90
2022-12-20T03:07:28.463Z,13.50
2022-12-20T03:10:16.741Z,15.50
2022-12-20T03:13:03.193Z,14.00
2022-12-20T03:15:51.939Z,15.40
2022-12-20T03:18:39.354Z,14.60
2022-12-20T03:21:26.852Z,14.00
2022-12-20T03:24:14.367Z,12.90
2022-12-20T03:27:01.326Z,14.50
2022-12-20T03:29:48.847Z,12.20
2022-12-20T03:32:35.557Z,16.50
2022-12-20T03:35:22.787Z,17.20
2022-12-20T03:38:09.220Z,17.40
2022-12-20T03:40:56.147Z,12.60
2022-12-20T03:43:42.557Z,16.20
2022-12-20T03:46:30.088Z,15.70
2022-12-20T03:49:17.119Z,15.90
2022-12-20T03:52:07.260Z,14.00
2022-12-20T03:54:54.009Z,16.60
2022-12-20T03:57:44.947Z,14.90
2022-12-20T04:00:43.115Z,14.00
2022-12-20T04:03:48.916Z,14.00
2022-12-20T04:06:35.536Z,14.80
2022-12-20T04:09:22.867Z,13.30
2022-12-20T04:12:13.588Z,16.50
2022-12-20T04:15:00.857Z,18.20
2022-12-20T04:17:48.449Z,13.30
2022-12-20T04:20:35.422Z,13.70
2022-12-20T04:23:30.439Z,14.60
2022-12-20T04:26:18.431Z,16.90
2022-12-20T04:29:05.614Z,14.50
2022-12-20T04:31:52.610Z,16.10
2022-12-20T04:34:39.588Z,16.50
2022-12-20T04:37:27.645Z,18.40
2022-12-20T04:40:14.553Z,19.70
2022-12-20T04:43:10.583Z,16.60
2022-12-20T04:45:57.270Z,16.80
2022-12-20T04:48:57.275Z,16.40
2022-12-20T04:51:45.869Z,16.70
2022-12-20T04:54:33.336Z,13.60
2022-12-20T04:57:32.139Z,15.30
2022-12-20T05:00:19.758Z,20.10
2022-12-20T05:03:10.838Z,14.90
2022-12-20T05:05:57.464Z,16.20
2022-12-20T05:08:45.057Z,18.20
2022-12-20T05:11:32.091Z,22.10
2022-12-20T05:14:19.270Z,43.10
2022-12-20T05:17:05.928Z,17.30
2022-12-20T05:19:52.376Z,25.60
2022-12-20T05:22:58.961Z,19.20
2022-12-20T05:26:08.591Z,30.40
2022-12-20T05:28:56.000Z,23.30
2022-12-20T05:31:44.745Z,28.70
2022-12-20T05:34:31.487Z,21.50
2022-12-20T05:37:18.224Z,25.90
2022-12-20T05:40:05.201Z,26.30
2022-12-20T05:42:54.266Z,29.60
2022-12-20T05:45:45.753Z,19.70
2022-12-20T05:48:34.205Z,17.00
2022-12-20T05:51:20.998Z,17.60
2022-12-20T05:54:16.573Z,17.10
2022-12-20T05:57:16.267Z,17.50
2022-12-20T06:00:04.889Z,18.90
2022-12-20T06:02:51.874Z,21.80
2022-12-20T06:05:39.282Z,20.30
2022-12-20T06:08:25.988Z,14.20
2022-12-20T06:11:13.416Z,20.30
2022-12-20T06:14:22.961Z,18.40
2022-12-20T06:17:09.610Z,19.70
2022-12-20T06:19:57.060Z,16.50
2022-12-20T06:22:44.384Z,23.40
2022-12-20T06:25:34.069Z,24.80
2022-12-20T06:28:22.484Z,24.30
2022-12-20T06:31:11.297Z,22.50
2022-12-20T06:34:08.883Z,18.40
2022-12-20T06:36:59.431Z,18.50
2022-12-20T06:39:49.435Z,20.20
2022-12-20T06:42:37.032Z,21.10
2022-12-20T06:45:23.847Z,21.20
2022-12-20T06:48:11.600Z,18.90
2022-12-20T06:50:59.249Z,16.40
2022-12-20T06:53:48.009Z,20.80
2022-12-20T06:56:41.029Z,19.40
2022-12-20T06:59:29.644Z,23.60
2022-12-20T07:02:16.387Z,17.40
2022-12-20T07:05:03.605Z,20.20
2022-12-20T07:07:50.279Z,18.70
2022-12-20T07:10:37.861Z,22.20
2022-12-20T07:13:24.859Z,20.80
2022-12-20T07:16:12.943Z,23.10
2022-12-20T07:18:59.699Z,28.40
2022-12-20T07:21:47.363Z,29.00
2022-12-20T07:24:34.445Z,23.70
2022-12-20T07:27:21.293Z,30.30
2022-12-20T07:30:08.102Z,24.50
2022-12-20T07:32:55.332Z,26.80
2022-12-20T07:35:41.852Z,23.20
2022-12-20T07:38:29.378Z,25.80
2022-12-20T07:41:17.803Z,26.50
2022-12-20T07:44:05.041Z,22.70
2022-12-20T07:46:51.957Z,23.50
2022-12-20T07:49:38.800Z,23.60
2022-12-20T07:52:26.689Z,25.40
2022-12-20T07:55:13.652Z,28.40
2022-12-20T07:58:02.356Z,41.80
2022-12-20T08:00:49.885Z,70.10
2022-12-20T08:03:38.731Z,30.70
2022-12-20T08:06:25.627Z,32.50
2022-12-20T08:09:13.510Z,25.30
2022-12-20T08:12:00.641Z,27.40
2022-12-20T08:14:47.374Z,28.10
2022-12-20T08:17:34.312Z,29.50
2022-12-20T08:20:21.163Z,29.30
2022-12-20T08:23:07.939Z,31.50
2022-12-20T08:25:54.609Z,26.00
2022-12-20T08:28:41.529Z,26.40
2022-12-20T08:31:28.125Z,27.20
2022-12-20T08:34:15.927Z,29.20
2022-12-20T08:37:03.640Z,22.40
2022-12-20T08:39:53.426Z,20.80
2022-12-20T08:42:40.187Z,24.00
2022-12-20T08:45:26.981Z,22.50
2022-12-20T08:48:13.820Z,22.50
2022-12-20T08:51:02.512Z,18.20
2022-12-20T08:53:49.312Z,20.40
2022-12-20T08:56:36.403Z,21.80
2022-12-20T08:59:22.992Z,18.90
2022-12-20T09:02:09.861Z,21.80
2022-12-20T09:04:56.886Z,20.40
2022-12-20T09:07:43.612Z,17.50
2022-12-20T09:10:30.230Z,21.00
2022-12-20T09:13:17.372Z,21.40
2022-12-20T09:16:04.905Z,21.30
2022-12-20T09:18:52.911Z,19.70
2022-12-20T09:21:39.800Z,19.80
2022-12-20T09:24:26.823Z,18.00
2022-12-20T09:27:13.295Z,19.40
2022-12-20T09:30:00.207Z,18.50
2022-12-20T09:32:46.651Z,21.00
2022-12-20T09:35:33.808Z,21.90
2022-12-20T09:38:20.648Z,19.90
2022-12-20T09:41:08.985Z,19.00
2022-12-20T09:43:56.184Z,19.70
2022-12-20T09:46:44.555Z,24.80
2022-12-20T09:49:33.516Z,22.50
2022-12-20T09:52:32.717Z,19.90
2022-12-20T09:55:22.790Z,21.60
2022-12-20T09:58:35.664Z,19.50
2022-12-20T10:01:25.612Z,21.60
2022-12-20T10:04:24.591Z,20.70
2022-12-20T10:07:20.551Z,26.00
2022-12-20T10:10:10.527Z,20.20
2022-12-20T10:13:04.765Z,17.80
2022-12-20T10:15:53.640Z,20.30
2022-12-20T10:18:58.049Z,33.40
2022-12-20T10:21:45.051Z,25.60
2022-12-20T10:24:32.282Z,21.70
2022-12-20T10:27:19.955Z,20.60
2022-12-20T10:30:11.240Z,18.80
2022-12-20T10:32:58.112Z,22.20
2022-12-20T10:35:46.023Z,19.50
2022-12-20T10:38:43.850Z,20.80
2022-12-20T10:41:32.336Z,20.20
2022-12-20T10:44:22.390Z,19.30
2022-12-20T10:47:22.332Z,18.40
2022-12-20T10:50:10.465Z,20.50
2022-12-20T10:53:09.620Z,18.70
2022-12-20T10:56:12.308Z,18.40
2022-12-20T11:01:47.131Z,18.10
2022-12-20T11:04:35.573Z,16.20
2022-12-20T11:07:27.398Z,18.70
2022-12-20T11:10:27.553Z,24.30
2022-12-20T11:13:26.727Z,17.60
2022-12-20T11:16:24.555Z,17.50
2022-12-20T11:19:20.397Z,21.60
2022-12-20T11:22:10.027Z,19.80
2022-12-20T11:25:00.251Z,19.20
2022-12-20T11:28:07.172Z,18.50
2022-12-20T11:31:06.102Z,20.50
2022-12-20T11:33:53.865Z,25.30
2022-12-20T11:36:59.444Z,26.10
2022-12-20T11:39:55.222Z,29.70
2022-12-20T11:42:45.392Z,21.10
2022-12-20T11:45:41.054Z,22.20
2022-12-20T11:48:46.724Z,32.40
2022-12-20T11:51:46.724Z,23.60
2022-12-20T11:54:37.743Z,28.40
2022-12-20T11:57:35.217Z,31.60
2022-12-20T12:00:36.299Z,27.90
2022-12-20T12:03:32.895Z,24.00
2022-12-20T12:06:26.333Z,28.40
2022-12-20T12:09:18.305Z,24.00
2022-12-20T12:12:19.729Z,25.60
2022-12-20T12:15:11.190Z,23.10
2022-12-20T12:18:05.803Z,20.30
2022-12-20T12:20:52.604Z,23.70
2022-12-20T12:23:42.463Z,20.20
2022-12-20T12:26:36.797Z,22.00
2022-12-20T12:29:24.135Z,30.10
2022-12-20T12:32:20.002Z,25.20
2022-12-20T12:35:31.125Z,22.80
2022-12-20T12:38:20.960Z,20.50
2022-12-20T12:41:07.659Z,18.20
2022-12-20T12:44:03.114Z,15.30
2022-12-20T12:46:54.601Z,17.50
2022-12-20T12:49:41.682Z,23.40
2022-12-20T12:52:42.833Z,20.40
2022-12-20T12:55:36.475Z,22.30
2022-12-20T12:58:23.557Z,19.70
2022-12-20T13:01:11.431Z,20.40
2022-12-20T13:04:01.263Z,22.80
2022-12-20T13:06:47.964Z,18.70
2022-12-20T13:09:37.004Z,19.70
2022-12-20T13:12:36.380Z,20.60
2022-12-20T13:15:23.309Z,19.50
2022-12-20T13:18:10.849Z,19.20
2022-12-20T13:21:16.509Z,22.20
2022-12-20T13:24:36.073Z,20.60
2022-12-20T13:27:43.333Z,19.60
2022-12-20T13:30:30.613Z,23.30
2022-12-20T13:33:23.324Z,33.30
2022-12-20T13:39:17.295Z,18.50
2022-12-20T13:42:15.602Z,20.30
2022-12-20T13:45:04.611Z,20.20
2022-12-20T13:47:57.373Z,23.60
2022-12-20T13:53:31.351Z,21.40
2022-12-20T13:56:27.292Z,20.90
2022-12-20T13:59:26.940Z,17.50
2022-12-20T14:02:25.415Z,16.40
2022-12-20T14:05:15.820Z,18.90
2022-12-20T14:08:05.549Z,22.90
2022-12-20T14:10:53.125Z,21.90
2022-12-20T14:13:40.411Z,19.10
2022-12-20T14:16:28.905Z,20.90
2022-12-20T14:19:16.854Z,28.50
2022-12-20T14:22:03.729Z,27.60
2022-12-20T14:24:50.718Z,26.30
2022-12-20T14:27:38.622Z,23.90
2022-12-20T14:30:30.743Z,21.20
2022-12-20T14:33:19.539Z,22.70
2022-12-20T14:36:27.028Z,32.70
2022-12-20T14:39:26.122Z,28.20
2022-12-20T14:42:20.985Z,26.20
2022-12-20T14:45:10.683Z,30.90
2022-12-20T14:47:59.372Z,27.70
2022-12-20T14:50:53.620Z,25.50
2022-12-20T14:53:40.542Z,26.20
2022-12-20T14:56:31.934Z,24.20
2022-12-20T14:59:24.963Z,21.40
2022-12-20T15:02:44.445Z,23.00
2022-12-20T15:05:41.039Z,22.00
2022-12-20T15:08:27.912Z,20.10
2022-12-20T15:11:22.194Z,31.20
2022-12-20T15:14:21.101Z,22.20
2022-12-20T15:17:12.304Z,29.00
2022-12-20T15:19:59.323Z,29.40
2022-12-20T15:22:48.526Z,28.80
2022-12-20T15:25:43.053Z,22.30
2022-12-20T15:28:30.900Z,21.20
2022-12-20T15:31:18.716Z,22.60
2022-12-20T15:34:25.404Z,21.50
2022-12-20T15:37:18.399Z,32.30
2022-12-20T15:40:06.293Z,29.20
2022-12-20T15:42:53.101Z,30.90
2022-12-20T15:45:41.430Z,43.30
2022-12-20T15:48:28.463Z,41.90
2022-12-20T15:51:24.467Z,37.90
2022-12-20T15:54:27.228Z,37.20
2022-12-20T15:57:14.972Z,29.90
2022-12-20T16:00:03.564Z,40.00
2022-12-20T16:02:59.703Z,36.00
2022-12-20T16:05:47.414Z,26.80
2022-12-20T16:08:34.216Z,24.20
2022-12-20T16:11:22.437Z,28.30
2022-12-20T16:14:13.881Z,31.10
2022-12-20T16:17:00.726Z,25.50
2022-12-20T16:19:48.486Z,24.90
2022-12-20T16:22:35.424Z,32.80
2022-12-20T16:25:25.307Z,34.70
2022-12-20T16:28:12.165Z,27.90
2022-12-20T16:30:59.023Z,27.40
2022-12-20T16:33:45.805Z,28.30
2022-12-20T16:36:32.997Z,24.30
2022-12-20T16:39:20.024Z,39.90
2022-12-20T16:42:13.274Z,24.00
2022-12-20T16:45:01.558Z,32.50
2022-12-20T16:47:49.094Z,28.60
2022-12-20T16:50:41.544Z,23.10
2022-12-20T16:53:37.888Z,31.50
2022-12-20T16:56:35.596Z,37.90
2022-12-20T16:59:23.796Z,25.20
2022-12-20T17:02:26.455Z,26.60
2022-12-20T17:05:25.207Z,26.70
2022-12-20T17:11:19.753Z,30.20
2022-12-20T17:14:12.326Z,27.00
2022-12-20T17:17:01.930Z,20.90
2022-12-20T17:19:48.768Z,25.10
2022-12-20T17:22:35.576Z,23.00
2022-12-20T17:25:22.803Z,23.70
2022-12-20T17:28:10.096Z,22.90
2022-12-20T17:31:00.994Z,27.30
2022-12-20T17:33:51.155Z,25.70
2022-12-20T17:36:38.335Z,27.20
2022-12-20T17:39:25.941Z,26.80
2022-12-20T17:42:13.420Z,25.20
2022-12-20T17:45:00.426Z,20.90
2022-12-20T17:47:47.172Z,22.60
2022-12-20T17:50:34.170Z,25.40
2022-12-20T17:53:21.166Z,21.20
2022-12-20T17:56:12.219Z,30.70
2022-12-20T17:58:59.508Z,32.30
2022-12-20T18:01:47.199Z,24.00
2022-12-20T18:04:34.253Z,25.90
2022-12-20T18:07:21.610Z,21.80
2022-12-20T18:10:08.289Z,29.30
2022-12-20T18:12:55.313Z,24.90
2022-12-20T18:15:41.892Z,24.00
2022-12-20T18:18:33.597Z,26.60
2022-12-20T18:21:24.568Z,23.00
2022-12-20T18:24:12.476Z,22.20
2022-12-20T18:26:59.212Z,20.60
2022-12-20T18:29:45.956Z,17.40
2022-12-20T18:32:32.615Z,27.90
2022-12-20T18:35:19.479Z,32.00
2022-12-20T18:38:05.971Z,24.30
2022-12-20T18:40:53.118Z,26.80
2022-12-20T18:43:39.862Z,26.10
2022-12-20T18:46:27.278Z,26.00
2022-12-20T18:49:16.689Z,25.90
2022-12-20T18:52:04.147Z,25.00
2022-12-20T18:54:51.080Z,26.00
2022-12-20T18:57:38.099Z,25.20
2022-12-20T19:00:24.835Z,32.60
2022-12-20T19:03:12.219Z,42.60
2022-12-20T19:05:59.545Z,29.10
2022-12-20T19:08:47.560Z,27.60
2022-12-20T19:11:34.590Z,23.90
2022-12-20T19:14:21.351Z,28.50
2022-12-20T19:17:08.088Z,27.90
2022-12-20T19:19:55.098Z,32.20
2022-12-20T19:22:41.567Z,27.10
2022-12-20T19:25:28.989Z,22.70
2022-12-20T19:28:15.907Z,22.40
2022-12-20T19:31:14.228Z,21.30
2022-12-20T19:34:10.168Z,19.20
2022-12-20T19:36:57.148Z,22.20
2022-12-20T19:39:43.730Z,23.30
2022-12-20T19:42:31.213Z,30.50
2022-12-20T19:45:17.822Z,27.40
2022-12-20T19:48:04.950Z,32.40
2022-12-20T19:50:51.964Z,36.90
2022-12-20T19:53:39.570Z,32.50
2022-12-20T19:56:28.014Z,33.40
2022-12-20T19:59:16.381Z,24.00
2022-12-20T20:02:03.691Z,24.90
2022-12-20T20:04:50.686Z,22.90
2022-12-20T20:07:37.354Z,27.10
2022-12-20T20:10:24.386Z,24.90
2022-12-20T20:13:11.210Z,27.10
2022-12-20T20:15:59.804Z,24.00
2022-12-20T20:18:47.205Z,24.00
2022-12-20T20:21:36.498Z,27.30
2022-12-20T20:24:23.282Z,30.00
2022-12-20T20:27:10.292Z,27.70
2022-12-20T20:29:57.505Z,26.90
2022-12-20T20:32:44.354Z,25.30
2022-12-20T20:35:30.989Z,26.50
2022-12-20T20:38:17.908Z,24.60
2022-12-20T20:41:04.590Z,35.20
2022-12-20T20:43:51.157Z,29.30
2022-12-20T20:46:37.922Z,35.50
2022-12-20T20:49:24.886Z,31.10
2022-12-20T20:52:11.802Z,32.00
2022-12-20T20:54:58.941Z,24.10
2022-12-20T20:57:46.207Z,21.90
2022-12-20T21:00:34.989Z,20.40
2022-12-20T21:03:21.948Z,31.20
2022-12-20T21:09:15.960Z,26.10
2022-12-20T21:12:03.997Z,25.50
2022-12-20T21:15:21.398Z,27.50
2022-12-20T21:17:57.288Z,29.60
2022-12-20T21:20:44.361Z,32.20
2022-12-20T21:23:32.297Z,24.30
2022-12-20T21:26:19.691Z,28.00
2022-12-20T21:29:06.990Z,22.70
2022-12-20T21:31:53.625Z,21.50
2022-12-20T21:34:41.171Z,21.90
2022-12-20T21:37:31.170Z,27.40
2022-12-20T21:40:18.380Z,51.10
2022-12-20T21:43:04.895Z,44.50
2022-12-20T21:45:52.227Z,28.80
2022-12-20T21:48:39.477Z,27.40
2022-12-20T21:51:27.463Z,27.70
2022-12-20T21:54:13.973Z,30.10
2022-12-20T21:57:01.282Z,29.90
2022-12-20T21:59:48.319Z,34.80
2022-12-20T22:02:35.634Z,29.20
2022-12-20T22:05:22.491Z,40.20
2022-12-20T22:08:09.669Z,26.50
2022-12-20T22:11:00.536Z,28.80
2022-12-20T22:13:47.926Z,28.60
2022-12-20T22:16:37.669Z,21.00
2022-12-20T22:19:24.638Z,26.60
2022-12-20T22:22:11.098Z,25.80
2022-12-20T22:24:58.302Z,26.90
2022-12-20T22:27:44.911Z,27.00
2022-12-20T22:30:32.764Z,29.50
2022-12-20T22:33:19.590Z,31.10
2022-12-20T22:36:07.215Z,32.70
2022-12-20T22:38:54.288Z,25.20
2022-12-20T22:41:41.732Z,25.80
2022-12-20T22:44:28.646Z,36.20
2022-12-20T22:47:16.016Z,26.40
2022-12-20T22:50:03.111Z,24.20
2022-12-20T22:52:50.259Z,27.30
2022-12-20T22:55:36.780Z,24.10
2022-12-20T22:58:24.243Z,21.00
2022-12-20T23:01:12.507Z,24.90
2022-12-20T23:04:00.063Z,24.70
2022-12-20T23:06:47.040Z,29.40
2022-12-20T23:09:34.335Z,24.10
2022-12-20T23:12:39.510Z,26.00
2022-12-20T23:15:41.525Z,26.10
2022-12-20T23:18:28.000Z,22.70
2022-12-20T23:21:33.766Z,18.60
2022-12-20T23:24:20.464Z,22.90
2022-12-20T23:27:07.417Z,20.60
2022-12-20T23:29:53.974Z,20.10
2022-12-20T23:32:44.922Z,26.70
2022-12-20T23:35:31.856Z,19.50
2022-12-20T23:38:19.170Z,21.30
2022-12-20T23:41:13.882Z,20.50
2022-12-20T23:44:02.849Z,21.70
2022-12-20T23:46:49.748Z,24.50
2022-12-20T23:49:36.723Z,24.30
2022-12-20T23:52:23.562Z,23.80
2022-12-20T23:55:11.408Z,20.20
2022-12-20T23:57:57.964Z,19.10
